Time;durP1;ratioP1;P1;durP2;ratioP2;P2;SDS_P1;SDS_P2;PMS_P1;PMS_P2;Temp;Humidity;BMP_temperature;BMP_pressure;BME280_temperature;BME280_humidity;BME280_pressure;Samples;Min_cycle;Max_cycle;Signal;HPM_P1;HPM_P2
2022/08/10 00:00:57;;;;;;;5.77;5.33;;;;;;;15.16;98.65;102906.34;5051078;28;20470;-48
2022/08/10 00:03:25;;;;;;;5.83;5.30;;;;;;;15.12;98.32;102907.69;5053354;28;20502;-47
2022/08/10 00:05:55;;;;;;;6.50;5.73;;;;;;;15.10;97.92;102896.28;5054935;28;20427;-51
2022/08/10 00:08:24;;;;;;;5.83;5.43;;;;;;;15.08;97.81;102898.34;5053764;28;20941;-46
2022/08/10 00:10:53;;;;;;;10.33;6.63;;;;;;;15.14;98.26;102903.00;5054569;28;20478;-50
2022/08/10 00:13:21;;;;;;;6.60;6.10;;;;;;;15.13;98.05;102902.16;5054283;28;20438;-48
2022/08/10 00:15:49;;;;;;;6.60;6.17;;;;;;;15.16;98.70;102898.28;5054762;28;20439;-51
2022/08/10 00:18:23;;;;;;;8.63;7.50;;;;;;;15.17;98.88;102898.09;5054261;28;20486;-51
2022/08/10 00:21:01;;;;;;;6.67;6.17;;;;;;;15.22;99.19;102890.38;5054486;28;20447;-50
2022/08/10 00:23:29;;;;;;;8.03;7.30;;;;;;;15.28;99.69;102903.13;5054185;28;20435;-48
2022/08/10 00:25:57;;;;;;;6.73;6.33;;;;;;;15.32;100.00;102903.59;5054429;28;20423;-47
2022/08/10 00:28:25;;;;;;;6.80;6.30;;;;;;;15.34;100.00;102898.88;5054054;28;20513;-45
2022/08/10 00:30:52;;;;;;;7.40;6.80;;;;;;;15.35;100.00;102892.50;5054371;28;20457;-54
2022/08/10 00:33:21;;;;;;;7.90;6.73;;;;;;;15.33;99.91;102884.59;5054110;28;20832;-53
2022/08/10 00:35:50;;;;;;;6.20;5.80;;;;;;;15.32;99.72;102892.84;5043474;28;20920;-49
2022/08/10 00:38:18;;;;;;;5.70;5.30;;;;;;;15.22;98.66;102884.16;5048177;28;20481;-47
2022/08/10 00:40:45;;;;;;;6.10;5.70;;;;;;;15.13;98.30;102886.03;5054093;28;20964;-48
2022/08/10 00:43:13;;;;;;;6.97;6.47;;;;;;;15.10;98.22;102883.69;5054121;28;20796;-49
2022/08/10 00:45:41;;;;;;;6.00;5.70;;;;;;;15.10;98.72;102888.22;5054096;28;20440;-49
2022/08/10 00:48:09;;;;;;;7.90;7.17;;;;;;;15.08;99.12;102887.59;5053490;28;20980;-48
2022/08/10 00:50:38;;;;;;;7.27;6.67;;;;;;;15.06;99.07;102885.06;5053729;28;20427;-47
2022/08/10 00:53:06;;;;;;;6.63;6.00;;;;;;;14.92;97.92;102891.16;5053921;28;20436;-48
2022/08/10 00:55:35;;;;;;;15.40;6.23;;;;;;;14.79;97.15;102890.84;5054018;28;20459;-48
2022/08/10 00:58:23;;;;;;;6.20;5.70;;;;;;;14.68;96.67;102891.22;5053628;28;20466;-52
2022/08/10 01:00:52;;;;;;;5.70;5.27;;;;;;;14.59;96.85;102894.94;5053605;28;20495;-46
2022/08/10 01:03:20;;;;;;;5.57;5.27;;;;;;;14.50;96.72;102887.91;5053350;28;20530;-50
2022/08/10 01:06:15;;;;;;;6.80;6.30;;;;;;;14.38;96.51;102893.63;5054068;28;20438;-45
2022/08/10 01:08:51;;;;;;;7.30;6.40;;;;;;;14.31;97.03;102887.22;5053277;28;20827;-50
2022/08/10 01:11:28;;;;;;;7.47;6.77;;;;;;;14.25;97.35;102885.22;5053560;28;20446;-48
2022/08/10 01:14:26;;;;;;;6.63;6.13;;;;;;;14.16;97.45;102877.31;5052686;28;20431;-51
2022/08/10 01:17:00;;;;;;;7.30;6.80;;;;;;;14.08;97.96;102877.34;5054116;28;20431;-42
2022/08/10 01:19:45;;;;;;;6.43;5.93;;;;;;;14.02;98.02;102875.31;5052909;28;20459;-44
2022/08/10 01:22:31;;;;;;;7.90;7.17;;;;;;;13.96;98.36;102884.03;5053314;28;20457;-46
2022/08/10 01:25:18;;;;;;;7.60;7.00;;;;;;;13.89;98.50;102875.00;5053546;28;20470;-44
2022/08/10 01:27:54;;;;;;;6.40;6.00;;;;;;;13.82;98.70;102886.38;5052817;28;20455;-48
2022/08/10 01:30:24;;;;;;;6.47;6.00;;;;;;;13.79;98.80;102885.88;5053059;28;20434;-45
2022/08/10 01:32:57;;;;;;;6.30;5.90;;;;;;;13.74;99.30;102891.72;5052960;28;20438;-44
2022/08/10 01:35:32;;;;;;;7.57;7.07;;;;;;;13.69;99.19;102891.38;5044864;28;20510;-45
2022/08/10 01:38:05;;;;;;;6.20;5.80;;;;;;;13.66;99.46;102889.03;5037474;28;20455;-43
2022/08/10 01:40:38;;;;;;;7.13;6.50;;;;;;;13.62;99.57;102893.03;5053123;28;20423;-44
2022/08/10 01:43:09;;;;;;;6.77;6.37;;;;;;;13.57;99.94;102884.66;5052940;28;20439;-45
2022/08/10 01:45:43;;;;;;;7.00;6.50;;;;;;;13.54;100.00;102893.03;5053160;28;20770;-43
2022/08/10 01:48:31;;;;;;;9.07;6.50;;;;;;;13.51;100.00;102889.81;5052640;28;20455;-45
2022/08/10 01:51:07;;;;;;;6.73;6.00;;;;;;;13.48;100.00;102884.78;5052927;28;20454;-45
2022/08/10 01:53:40;;;;;;;7.23;6.63;;;;;;;13.47;100.00;102891.19;5052816;28;20439;-46
2022/08/10 01:56:10;;;;;;;8.33;6.77;;;;;;;13.45;100.00;102890.47;5053012;28;20423;-43
2022/08/10 01:58:39;;;;;;;6.53;6.03;;;;;;;13.44;100.00;102896.88;5051852;28;20473;-45
2022/08/10 02:01:13;;;;;;;6.40;5.90;;;;;;;13.41;100.00;102891.84;5052496;28;20464;-43
2022/08/10 02:03:46;;;;;;;8.43;7.57;;;;;;;13.39;100.00;102891.97;5052256;28;20457;-48
2022/08/10 02:06:35;;;;;;;6.83;6.27;;;;;;;13.37;100.00;102891.31;5052959;28;20427;-45
2022/08/10 02:09:05;;;;;;;8.07;7.37;;;;;;;13.34;100.00;102896.16;5052159;28;20482;-45
2022/08/10 02:11:34;;;;;;;7.40;6.90;;;;;;;13.32;100.00;102899.81;5052335;28;20454;-45
2022/08/10 02:14:24;;;;;;;7.07;6.67;;;;;;;13.30;100.00;102898.31;5052342;28;20442;-46
2022/08/10 02:17:02;;;;;;;7.60;6.90;;;;;;;13.28;100.00;102908.34;5052651;28;20427;-45
2022/08/10 02:19:32;;;;;;;7.13;6.63;;;;;;;13.25;100.00;102901.50;5051782;28;20467;-44
2022/08/10 02:22:02;;;;;;;6.33;5.83;;;;;;;13.26;100.00;102905.00;5052162;28;20452;-44
2022/08/10 02:24:52;;;;;;;8.23;7.50;;;;;;;13.28;100.00;102911.03;5052332;28;20442;-48
2022/08/10 02:27:23;;;;;;;8.70;7.97;;;;;;;13.37;100.00;102906.53;5052478;28;20435;-49
2022/08/10 02:29:53;;;;;;;8.23;7.53;;;;;;;13.47;100.00;102916.13;5051835;28;20471;-43
2022/08/10 02:32:24;;;;;;;9.00;8.30;;;;;;;13.59;100.00;102914.00;5051869;28;20447;-43
2022/08/10 02:35:10;;;;;;;9.13;8.17;;;;;;;13.68;100.00;102916.50;5044026;28;20437;-45
2022/08/10 02:37:51;;;;;;;9.67;8.53;;;;;;;13.75;100.00;102914.84;5043498;28;20483;-46
2022/08/10 02:40:19;;;;;;;10.80;9.73;;;;;;;13.84;100.00;102921.91;5052041;28;20427;-45
2022/08/10 02:43:20;;;;;;;11.00;9.90;;;;;;;13.91;100.00;102908.69;5051786;28;20435;-45
2022/08/10 02:46:13;;;;;;;10.03;9.23;;;;;;;13.97;100.00;102905.34;5051968;28;20435;-45
2022/08/10 02:48:54;;;;;;;9.90;9.10;;;;;;;14.03;100.00;102899.31;5051003;28;20475;-45
2022/08/10 02:51:29;;;;;;;13.27;10.47;;;;;;;14.06;100.00;102906.19;5052317;28;20446;-47
2022/08/10 02:54:21;;;;;;;10.10;9.20;;;;;;;14.07;100.00;102914.06;5051845;28;20447;-46
2022/08/10 02:56:55;;;;;;;9.30;8.33;;;;;;;14.06;100.00;102907.03;5051794;28;20504;-46
2022/08/10 02:59:27;;;;;;;10.57;8.67;;;;;;;14.07;100.00;102902.47;5051544;28;20455;-48
2022/08/10 03:02:10;;;;;;;11.73;9.27;;;;;;;14.01;100.00;102908.53;5051197;28;20600;-50
2022/08/10 03:04:43;;;;;;;10.40;9.50;;;;;;;13.96;100.00;102910.84;5051827;28;20443;-44
2022/08/10 03:07:27;;;;;;;11.07;9.93;;;;;;;13.98;100.00;102906.19;5051115;28;20434;-44
2022/08/10 03:10:15;;;;;;;10.00;9.23;;;;;;;13.99;100.00;102903.31;5051487;28;20475;-44
2022/08/10 03:12:44;;;;;;;9.90;9.03;;;;;;;14.01;100.00;102908.53;5051413;28;20462;-45
2022/08/10 03:15:14;;;;;;;9.67;8.97;;;;;;;14.01;100.00;102906.66;5052107;28;20789;-44
2022/08/10 03:17:44;;;;;;;8.80;8.00;;;;;;;13.96;100.00;102900.13;5051097;28;20522;-43
2022/08/10 03:20:29;;;;;;;8.00;7.30;;;;;;;13.90;100.00;102903.47;5051455;28;20431;-45
2022/08/10 03:23:09;;;;;;;7.93;7.23;;;;;;;13.79;100.00;102910.00;5051436;28;20439;-43
2022/08/10 03:25:37;;;;;;;7.10;6.70;;;;;;;13.69;100.00;102912.00;5051444;28;20435;-45
2022/08/10 03:28:06;;;;;;;8.80;7.80;;;;;;;13.61;100.00;102910.16;5051084;28;20810;-47
2022/08/10 03:30:34;;;;;;;8.67;8.00;;;;;;;13.59;100.00;102905.97;5051252;28;20475;-47
2022/08/10 03:33:04;;;;;;;9.27;8.50;;;;;;;13.55;100.00;102907.28;5051261;28;20435;-46
2022/08/10 03:35:34;;;;;;;10.70;8.63;;;;;;;13.55;100.00;102908.13;5042878;28;20439;-44
2022/08/10 03:38:02;;;;;;;11.70;8.03;;;;;;;13.50;100.00;102918.47;5045056;28;20455;-47
2022/08/10 03:40:34;;;;;;;10.93;8.70;;;;;;;13.45;100.00;102910.09;5055214;28;20433;-47
2022/08/10 03:43:15;;;;;;;8.07;7.57;;;;;;;13.46;100.00;102917.13;5055096;28;20524;-43
2022/08/10 03:45:44;;;;;;;11.40;10.23;;;;;;;13.48;100.00;102908.91;5055275;28;20438;-43
2022/08/10 03:48:24;;;;;;;9.27;8.47;;;;;;;13.45;100.00;102914.59;5054898;28;20487;-43
2022/08/10 03:51:14;;;;;;;9.37;8.57;;;;;;;13.38;100.00;102917.09;5055010;28;20467;-43
2022/08/10 03:53:42;;;;;;;10.17;9.23;;;;;;;13.38;100.00;102919.78;5054793;28;20442;-43
2022/08/10 03:56:31;;;;;;;10.37;9.17;;;;;;;13.36;100.00;102908.38;5055135;28;20442;-46
2022/08/10 03:59:00;;;;;;;10.03;9.23;;;;;;;13.39;100.00;102913.41;5054664;28;21018;-47
2022/08/10 04:01:29;;;;;;;11.13;10.23;;;;;;;13.40;100.00;102915.09;5054722;28;20459;-51
2022/08/10 04:04:17;;;;;;;11.20;10.10;;;;;;;13.35;100.00;102914.72;5054932;28;21019;-47
2022/08/10 04:06:53;;;;;;;9.17;8.47;;;;;;;13.35;100.00;102917.41;5055038;28;20446;-50
2022/08/10 04:09:23;;;;;;;10.50;9.60;;;;;;;13.36;100.00;102913.75;5054281;28;20479;-45
2022/08/10 04:11:56;;;;;;;11.50;9.83;;;;;;;13.37;100.00;102918.09;5054621;28;20538;-43
2022/08/10 04:14:24;;;;;;;10.63;9.47;;;;;;;13.38;100.00;102917.09;5054515;28;20437;-44
2022/08/10 04:17:11;;;;;;;10.47;9.73;;;;;;;13.39;100.00;102915.25;5055129;28;20427;-44
2022/08/10 04:19:44;;;;;;;11.70;10.70;;;;;;;13.40;100.00;102914.25;5053998;28;20452;-46
2022/08/10 04:22:17;;;;;;;11.30;10.30;;;;;;;13.39;100.00;102916.09;5054340;28;20474;-43
2022/08/10 04:24:48;;;;;;;12.80;9.30;;;;;;;13.42;100.00;102914.94;5054518;28;20975;-44
2022/08/10 04:27:16;;;;;;;9.10;8.40;;;;;;;13.44;100.00;102915.63;5054546;28;20431;-45
2022/08/10 04:29:44;;;;;;;8.87;8.27;;;;;;;13.46;100.00;102918.97;5053894;28;20476;-44
2022/08/10 04:32:15;;;;;;;10.77;9.87;;;;;;;13.53;100.00;102918.16;5054258;28;20447;-45
2022/08/10 04:34:45;;;;;;;10.30;9.50;;;;;;;13.61;100.00;102922.69;5046269;28;20438;-47
2022/08/10 04:37:17;;;;;;;14.07;10.37;;;;;;;13.67;100.00;102925.56;5046323;28;20780;-44
2022/08/10 04:39:45;;;;;;;9.67;8.70;;;;;;;13.77;100.00;102928.09;5053620;28;20455;-45
2022/08/10 04:42:13;;;;;;;9.50;8.60;;;;;;;13.88;100.00;102916.22;5053937;28;20461;-47
2022/08/10 04:44:41;;;;;;;9.43;8.73;;;;;;;13.98;100.00;102920.41;5054115;28;20428;-46
2022/08/10 04:47:09;;;;;;;8.60;7.90;;;;;;;14.12;100.00;102917.09;5054210;28;20438;-44
2022/08/10 04:49:37;;;;;;;8.73;8.00;;;;;;;14.27;100.00;102917.25;5052465;28;20471;-45
2022/08/10 04:52:24;;;;;;;9.23;8.20;;;;;;;14.50;100.00;102920.97;5053601;28;20533;-43
2022/08/10 04:54:52;;;;;;;9.17;8.53;;;;;;;14.68;100.00;102916.25;5054006;28;20454;-44
2022/08/10 04:57:19;;;;;;;10.63;9.30;;;;;;;14.94;100.00;102913.31;5054048;28;20447;-46
2022/08/10 04:59:47;;;;;;;9.40;8.60;;;;;;;15.48;100.00;102916.97;5053451;28;20463;-46
2022/08/10 05:02:15;;;;;;;11.67;10.67;;;;;;;16.58;100.00;102920.03;5053671;28;20463;-49
2022/08/10 05:04:59;;;;;;;10.93;9.93;;;;;;;18.15;100.00;102909.59;5053681;28;20518;-45
2022/08/10 05:07:27;;;;;;;11.17;10.27;;;;;;;19.61;100.00;102913.00;5053442;28;20522;-45
2022/08/10 05:09:56;;;;;;;9.73;8.83;;;;;;;20.87;100.00;102908.28;5053627;28;20449;-47
2022/08/10 05:12:32;;;;;;;9.07;8.40;;;;;;;22.09;90.65;102907.31;5053498;28;20531;-46
2022/08/10 05:15:05;;;;;;;9.63;8.93;;;;;;;23.31;86.11;102912.78;5053537;28;20420;-47
2022/08/10 05:17:33;;;;;;;8.57;8.07;;;;;;;24.28;76.75;102906.19;5052888;28;20434;-42
2022/08/10 05:20:01;;;;;;;8.27;7.77;;;;;;;25.08;69.84;102907.22;5053553;28;20453;-43
2022/08/10 05:22:40;;;;;;;9.83;8.83;;;;;;;25.89;67.10;102911.56;5053194;28;20987;-44
2022/08/10 05:25:10;;;;;;;7.23;6.83;;;;;;;26.60;63.06;102911.66;5053448;28;20488;-44
2022/08/10 05:27:38;;;;;;;8.10;7.60;;;;;;;26.99;60.29;102909.78;5052929;28;20430;-43
2022/08/10 05:30:07;;;;;;;9.53;7.50;;;;;;;27.11;57.07;102913.22;5053483;28;20433;-46
2022/08/10 05:32:35;;;;;;;7.33;6.73;;;;;;;27.37;56.49;102912.44;5053141;28;20451;-43
2022/08/10 05:35:23;;;;;;;8.07;7.47;;;;;;;27.60;53.88;102914.06;5045331;28;20431;-45
2022/08/10 05:37:55;;;;;;;12.73;7.53;;;;;;;27.91;45.88;102907.81;5044359;28;20461;-46
2022/08/10 05:40:42;;;;;;;8.40;7.90;;;;;;;27.64;53.54;102900.69;5053205;28;20470;-47
2022/08/10 05:43:17;;;;;;;8.37;7.57;;;;;;;27.82;47.30;102903.88;5052991;28;20438;-46
2022/08/10 05:45:46;;;;;;;6.57;6.00;;;;;;;27.93;50.36;102900.13;5053216;28;20427;-46
2022/08/10 05:48:34;;;;;;;9.20;8.53;;;;;;;27.95;46.39;102897.16;5052721;28;20828;-45
2022/08/10 05:51:22;;;;;;;7.10;6.70;;;;;;;28.47;48.86;102903.63;5052805;28;20467;-47
2022/08/10 05:53:52;;;;;;;8.00;7.50;;;;;;;28.46;48.78;102899.22;5052722;28;20800;-44
2022/08/10 05:56:34;;;;;;;8.87;8.37;;;;;;;28.31;49.77;102896.38;5052884;28;20466;-43
2022/08/10 05:59:23;;;;;;;6.93;6.53;;;;;;;28.31;46.90;102906.53;5052406;28;20875;-45
2022/08/10 06:02:14;;;;;;;7.20;6.70;;;;;;;28.71;48.00;102906.81;5052353;28;20224;-45
2022/08/10 06:05:05;;;;;;;7.83;7.33;;;;;;;29.09;48.37;102900.16;5052690;28;20469;-47
2022/08/10 06:07:37;;;;;;;8.37;7.63;;;;;;;28.95;47.67;102904.47;5051950;28;20293;-42
2022/08/10 06:10:08;;;;;;;7.63;7.13;;;;;;;29.38;42.83;102903.28;5052687;28;20231;-44
2022/08/10 06:12:40;;;;;;;6.83;6.37;;;;;;;29.64;41.98;102913.22;5052286;28;20474;-44
2022/08/10 06:15:23;;;;;;;6.30;6.00;;;;;;;30.02;45.96;102914.66;5052559;28;20431;-45
2022/08/10 06:18:14;;;;;;;6.17;5.87;;;;;;;29.99;44.16;102910.53;5052266;28;20231;-45
2022/08/10 06:20:42;;;;;;;6.47;6.07;;;;;;;29.92;44.12;102910.00;5052429;28;20311;-49
2022/08/10 06:23:12;;;;;;;7.03;6.60;;;;;;;30.45;44.44;102905.03;5051977;28;20196;-44
2022/08/10 06:25:41;;;;;;;7.40;6.90;;;;;;;30.73;43.45;102915.47;5052624;28;20200;-45
2022/08/10 06:28:32;;;;;;;6.80;6.40;;;;;;;30.66;41.38;102901.16;5051963;28;20228;-45
2022/08/10 06:31:01;;;;;;;8.03;7.30;;;;;;;29.57;40.82;102896.16;5052219;28;20224;-45
2022/08/10 06:33:31;;;;;;;7.47;7.07;;;;;;;28.70;43.25;102901.59;5052067;28;20200;-44
2022/08/10 06:36:01;;;;;;;7.70;7.30;;;;;;;28.28;46.57;102901.56;5032520;28;20185;-43
2022/08/10 06:38:32;;;;;;;7.57;7.07;;;;;;;28.13;46.64;102905.03;5047574;28;20227;-44
2022/08/10 06:41:04;;;;;;;8.07;7.27;;;;;;;27.68;46.90;102901.81;5051920;28;20223;-45
2022/08/10 06:43:35;;;;;;;7.97;7.37;;;;;;;28.05;45.55;102905.47;5051913;28;20207;-47
2022/08/10 06:46:08;;;;;;;8.20;7.70;;;;;;;28.22;47.31;102911.69;5051989;28;20201;-47
2022/08/10 06:48:46;;;;;;;6.97;6.47;;;;;;;29.04;46.92;102897.34;5051583;28;20609;-44
2022/08/10 06:51:17;;;;;;;9.07;8.30;;;;;;;28.80;43.40;102904.38;5051608;28;20224;-45
2022/08/10 06:53:48;;;;;;;7.97;7.47;;;;;;;28.52;44.42;102908.31;5051745;28;20191;-46
2022/08/10 06:56:24;;;;;;;6.87;6.47;;;;;;;28.45;46.37;102904.97;5051897;28;20206;-43
2022/08/10 06:59:11;;;;;;;7.60;7.10;;;;;;;28.16;44.28;102901.75;5051307;28;20727;-47
2022/08/10 07:01:51;;;;;;;6.70;6.27;;;;;;;28.14;45.66;102903.06;5051723;28;20226;-46
2022/08/10 07:04:25;;;;;;;8.53;7.87;;;;;;;27.73;46.33;102910.94;5051481;28;20196;-46
2022/08/10 07:07:03;;;;;;;7.57;7.17;;;;;;;27.80;46.46;102907.97;5051795;28;20295;-44
2022/08/10 07:09:32;;;;;;;7.80;7.10;;;;;;;27.48;47.78;102907.91;5050971;28;20223;-43
2022/08/10 07:12:03;;;;;;;8.37;7.57;;;;;;;27.52;48.03;102910.97;5050564;28;20333;-46
2022/08/10 07:14:38;;;;;;;8.27;7.77;;;;;;;27.14;48.45;102912.72;5051925;28;20203;-46
2022/08/10 07:17:07;;;;;;;8.07;7.50;;;;;;;26.98;49.50;102912.75;5051715;28;20201;-45
2022/08/10 07:19:45;;;;;;;8.93;7.47;;;;;;;27.21;49.89;102904.31;5051236;28;20341;-44
2022/08/10 07:22:21;;;;;;;7.20;6.70;;;;;;;27.51;50.83;102909.34;5051102;28;20693;-46
2022/08/10 07:25:11;;;;;;;7.47;7.07;;;;;;;27.71;48.78;102913.09;5051570;28;20222;-46
2022/08/10 07:27:42;;;;;;;7.70;7.10;;;;;;;27.94;49.48;102909.19;5050884;28;20688;-44
2022/08/10 07:30:30;;;;;;;7.00;6.50;;;;;;;28.66;48.00;102909.53;5051546;28;20200;-44
2022/08/10 07:33:00;;;;;;;6.60;6.10;;;;;;;28.46;47.91;102915.66;5050975;28;20247;-46
2022/08/10 07:35:29;;;;;;;6.60;6.23;;;;;;;28.79;47.04;102920.03;5043275;28;20242;-48
2022/08/10 07:38:12;;;;;;;6.63;6.10;;;;;;;29.07;46.08;102914.13;5038123;28;20299;-45
2022/08/10 07:40:41;;;;;;;7.00;6.50;;;;;;;28.84;45.11;102922.00;5051483;28;20217;-45
2022/08/10 07:43:12;;;;;;;4.73;4.37;;;;;;;28.77;40.92;102918.66;5051098;28;20200;-46
2022/08/10 07:45:40;;;;;;;3.60;3.40;;;;;;;28.21;44.12;102920.16;5051445;28;20200;-43
2022/08/10 07:48:13;;;;;;;5.30;3.40;;;;;;;28.16;43.61;102929.19;5050996;28;20219;-46
2022/08/10 07:50:41;;;;;;;4.13;3.93;;;;;;;27.85;44.72;102925.31;5051284;28;20213;-45
2022/08/10 07:53:12;;;;;;;3.87;3.57;;;;;;;27.71;44.54;102924.06;5050936;28;20216;-44
2022/08/10 07:55:42;;;;;;;4.73;4.40;;;;;;;27.08;45.67;102930.16;5051406;28;20660;-46
2022/08/10 07:58:35;;;;;;;4.00;3.80;;;;;;;26.32;46.99;102933.66;5050894;28;20458;-44
2022/08/10 08:01:03;;;;;;;3.87;3.60;;;;;;;25.79;47.56;102920.41;5050979;28;20469;-43
2022/08/10 08:03:32;;;;;;;4.07;3.77;;;;;;;25.50;49.98;102929.69;5050829;28;20730;-43
2022/08/10 08:06:01;;;;;;;4.10;3.37;;;;;;;24.53;52.13;102929.44;5051059;28;20430;-45
2022/08/10 08:08:40;;;;;;;3.47;3.27;;;;;;;24.54;50.10;102933.81;5050845;28;20877;-42
2022/08/10 08:11:09;;;;;;;3.77;2.60;;;;;;;24.55;49.65;102926.47;5051218;28;20451;-45
2022/08/10 08:13:55;;;;;;;2.50;2.40;;;;;;;24.55;48.85;102934.66;5050831;28;20518;-44
2022/08/10 08:16:24;;;;;;;2.60;2.43;;;;;;;24.54;50.30;102925.66;5051564;28;20450;-48
2022/08/10 08:18:55;;;;;;;2.20;2.10;;;;;;;24.41;48.98;102923.13;5050380;28;20482;-43
2022/08/10 08:21:43;;;;;;;2.50;2.40;;;;;;;24.78;47.12;102929.19;5050679;28;20462;-42
2022/08/10 08:24:34;;;;;;;2.30;2.20;;;;;;;25.15;47.10;102916.09;5053466;28;20445;-46
2022/08/10 08:27:06;;;;;;;2.50;2.40;;;;;;;25.08;46.32;102912.69;5054480;28;20431;-46
2022/08/10 08:29:38;;;;;;;3.40;3.20;;;;;;;25.35;46.93;102916.53;5053913;28;20469;-44
2022/08/10 08:32:07;;;;;;;2.90;2.73;;;;;;;25.20;46.12;102922.50;5054187;22;20834;-52
2022/08/10 08:34:38;;;;;;;2.97;2.87;;;;;;;24.95;47.50;102913.78;5006740;28;20926;-46
2022/08/10 08:37:08;;;;;;;2.67;2.57;;;;;;;24.88;47.26;102912.25;5026097;28;20785;-47
2022/08/10 08:39:36;;;;;;;2.60;2.50;;;;;;;24.76;47.99;102914.94;5033952;28;20470;-45
2022/08/10 08:42:16;;;;;;;2.77;2.67;;;;;;;24.40;49.19;102912.47;5034136;28;20451;-44
2022/08/10 08:45:00;;;;;;;2.80;2.70;;;;;;;24.21;48.76;102920.75;5034280;28;20446;-45
2022/08/10 08:47:42;;;;;;;2.50;2.40;;;;;;;24.34;49.36;102921.59;5033797;28;20812;-43
2022/08/10 08:50:45;;;;;;;2.60;2.40;;;;;;;24.11;50.03;102911.47;5034330;28;20424;-46
2022/08/10 08:53:25;;;;;;;3.00;2.53;;;;;;;24.29;47.94;102905.09;5033773;28;20836;-48
2022/08/10 08:56:23;;;;;;;2.57;2.37;;;;;;;24.11;48.87;102911.47;5034037;28;20428;-46
2022/08/10 08:59:05;;;;;;;3.13;2.90;;;;;;;24.03;48.83;102909.06;5033487;28;20972;-47
2022/08/10 09:01:48;;;;;;;3.53;3.07;;;;;;;24.13;48.97;102910.16;5033755;28;20976;-46
2022/08/10 09:04:30;;;;;;;2.07;1.97;;;;;;;24.57;47.61;102903.34;5033585;28;20443;-46
2022/08/10 09:07:15;;;;;;;2.50;2.40;;;;;;;24.05;47.88;102896.03;5034247;28;20432;-48
2022/08/10 09:10:12;;;;;;;2.77;2.67;;;;;;;24.61;47.54;102896.31;5033534;28;20822;-47
2022/08/10 09:12:51;;;;;;;2.40;2.30;;;;;;;23.98;47.41;102885.25;5033350;28;20481;-50
2022/08/10 09:15:27;;;;;;;2.73;2.53;;;;;;;23.78;50.43;102892.03;5033610;28;20435;-45
2022/08/10 09:18:16;;;;;;;3.30;2.70;;;;;;;23.86;49.43;102891.72;5033223;28;21016;-46
2022/08/10 09:20:49;;;;;;;2.47;2.23;;;;;;;24.19;49.01;102887.41;5033556;28;20454;-45
2022/08/10 09:23:25;;;;;;;5.47;2.50;;;;;;;24.36;47.99;102893.03;5033189;28;20944;-51
2022/08/10 09:26:18;;;;;;;2.23;2.13;;;;;;;24.41;49.26;102881.38;5033662;28;20439;-48
2022/08/10 09:28:46;;;;;;;2.77;2.57;;;;;;;24.46;48.61;102876.88;5033158;28;20559;-44
2022/08/10 09:31:45;;;;;;;2.30;2.20;;;;;;;24.22;48.53;102883.41;5033399;28;20463;-46
2022/08/10 09:34:58;;;;;;;2.57;2.47;;;;;;;24.37;49.72;102872.84;5024916;28;20479;-46
2022/08/10 09:37:58;;;;;;;2.57;2.37;;;;;;;24.46;49.29;102876.06;5024589;28;20462;-48
2022/08/10 09:40:38;;;;;;;3.10;2.90;;;;;;;24.60;49.60;102869.31;5033014;28;20438;-46
2022/08/10 09:43:36;;;;;;;2.70;2.20;;;;;;;24.94;48.33;102868.44;5033060;28;20435;-46
2022/08/10 09:46:13;;;;;;;2.30;2.20;;;;;;;25.21;46.96;102864.06;5032966;28;20438;-48
2022/08/10 09:48:54;;;;;;;2.63;2.53;;;;;;;25.37;45.93;102867.94;5032513;28;20466;-45
2022/08/10 09:51:31;;;;;;;2.43;2.30;;;;;;;25.39;46.04;102860.31;5032851;28;20454;-45
2022/08/10 09:54:26;;;;;;;2.50;2.40;;;;;;;25.19;45.78;102860.78;5032819;28;20563;-47
2022/08/10 09:57:08;;;;;;;2.13;2.03;;;;;;;25.38;45.57;102861.41;5033004;28;20432;-45
2022/08/10 10:00:01;;;;;;;2.40;2.30;;;;;;;25.66;45.47;102858.66;5032563;28;20458;-48
2022/08/10 10:02:37;;;;;;;2.30;2.20;;;;;;;25.66;44.87;102857.84;5032346;28;20455;-46
2022/08/10 10:05:16;;;;;;;5.17;3.53;;;;;;;25.81;44.29;102852.63;5033158;28;20418;-50
2022/08/10 10:08:00;;;;;;;3.37;2.50;;;;;;;25.39;44.61;102854.06;5032429;28;20463;-49
2022/08/10 10:10:35;;;;;;;3.00;2.83;;;;;;;25.27;44.29;102856.81;5032580;28;20454;-46
2022/08/10 10:13:19;;;;;;;3.17;2.97;;;;;;;25.13;43.93;102858.16;5032129;28;20486;-49
2022/08/10 10:16:23;;;;;;;2.50;2.30;;;;;;;25.05;45.63;102856.66;5032711;28;20428;-45
2022/08/10 10:19:07;;;;;;;3.03;2.83;;;;;;;25.12;45.79;102848.31;5032181;28;20473;-48
2022/08/10 10:21:44;;;;;;;2.70;2.50;;;;;;;25.14;46.02;102851.66;5032416;28;20474;-42
2022/08/10 10:24:35;;;;;;;2.20;2.10;;;;;;;25.30;45.22;102845.41;5032351;28;20509;-47
2022/08/10 10:27:13;;;;;;;4.20;2.60;;;;;;;25.58;44.76;102842.69;5032525;28;20481;-47
2022/08/10 10:29:49;;;;;;;2.70;2.50;;;;;;;25.83;44.81;102845.03;5031839;28;20466;-42
2022/08/10 10:32:36;;;;;;;2.47;2.37;;;;;;;25.98;44.54;102836.25;5031945;28;20455;-43
2022/08/10 10:35:15;;;;;;;2.80;2.70;;;;;;;26.04;43.62;102836.09;5024106;28;20506;-45
2022/08/10 10:37:46;;;;;;;3.80;2.50;;;;;;;26.02;44.27;102840.97;5023486;28;20523;-48
2022/08/10 10:40:37;;;;;;;2.57;2.47;;;;;;;26.27;43.60;102838.66;5032072;28;20528;-45
2022/08/10 10:43:10;;;;;;;2.77;2.67;;;;;;;26.40;43.85;102835.56;5032041;28;20445;-48
2022/08/10 10:45:56;;;;;;;2.80;2.70;;;;;;;26.40;43.50;102837.50;5032146;28;20490;-50
2022/08/10 10:48:32;;;;;;;3.27;3.17;;;;;;;25.78;44.75;102836.75;5030738;28;20456;-48
2022/08/10 10:51:07;;;;;;;2.70;2.50;;;;;;;25.57;46.23;102832.81;5031945;28;20455;-45
2022/08/10 10:53:46;;;;;;;2.60;2.50;;;;;;;25.75;46.18;102831.75;5031823;28;20471;-48
2022/08/10 10:56:20;;;;;;;2.63;2.50;;;;;;;25.98;45.00;102828.06;5032031;28;20774;-45
2022/08/10 10:58:58;;;;;;;2.80;2.60;;;;;;;25.56;46.85;102820.25;5031554;28;20475;-47
2022/08/10 11:01:37;;;;;;;2.50;2.40;;;;;;;25.49;47.24;102822.31;5031935;28;20447;-45
2022/08/10 11:04:22;;;;;;;3.20;3.00;;;;;;;25.20;47.13;102817.91;5031805;28;20427;-46
2022/08/10 11:07:01;;;;;;;2.77;2.67;;;;;;;25.46;46.21;102811.84;5032077;28;20427;-47
2022/08/10 11:09:42;;;;;;;3.17;2.87;;;;;;;25.42;45.39;102820.78;5031203;28;20457;-47
2022/08/10 11:12:44;;;;;;;3.23;3.13;;;;;;;25.59;45.69;102814.31;5031726;28;20462;-44
2022/08/10 11:15:23;;;;;;;2.60;2.50;;;;;;;25.71;44.99;102820.53;5031776;28;20459;-48
2022/08/10 11:17:57;;;;;;;2.90;2.80;;;;;;;26.05;44.03;102815.88;5031299;28;20455;-50
2022/08/10 11:20:36;;;;;;;2.77;2.60;;;;;;;26.05;43.24;102810.41;5031731;28;20435;-43
2022/08/10 11:23:17;;;;;;;2.80;2.70;;;;;;;26.16;43.65;102806.78;5031485;28;20439;-49
2022/08/10 11:25:51;;;;;;;2.80;2.70;;;;;;;25.86;42.41;102796.16;5031725;28;20438;-44
2022/08/10 11:28:32;;;;;;;2.40;2.27;;;;;;;25.95;42.15;102799.31;5030895;28;20482;-47
2022/08/10 11:31:10;;;;;;;3.30;3.03;;;;;;;26.07;42.04;102786.38;5031367;28;20463;-43
2022/08/10 11:33:43;;;;;;;2.50;2.40;;;;;;;26.06;42.96;102794.81;5030636;28;20502;-49
2022/08/10 11:36:40;;;;;;;2.63;2.53;;;;;;;26.45;42.39;102793.78;5019776;28;20441;-45
2022/08/10 11:39:14;;;;;;;3.30;2.80;;;;;;;26.30;42.54;102791.66;4991870;28;20460;-46
2022/08/10 11:41:52;;;;;;;2.43;2.33;;;;;;;25.90;43.14;102790.19;4992327;28;20453;-47
2022/08/10 11:44:50;;;;;;;3.33;3.00;;;;;;;26.01;43.52;102792.03;4992331;28;20437;-50
2022/08/10 11:47:22;;;;;;;2.77;2.43;;;;;;;25.98;40.91;102789.78;4992110;28;20425;-47
2022/08/10 11:49:54;;;;;;;3.00;2.77;;;;;;;26.27;41.03;102791.34;4991997;28;20441;-44
2022/08/10 11:52:34;;;;;;;2.57;2.47;;;;;;;26.29;37.80;102791.91;4991858;28;20453;-44
2022/08/10 11:55:11;;;;;;;3.57;2.40;;;;;;;26.37;37.99;102789.56;4992044;28;20482;-46
2022/08/10 11:57:44;;;;;;;2.77;2.57;;;;;;;26.37;39.83;102781.34;4991760;28;20430;-44
2022/08/10 12:00:24;;;;;;;2.93;2.73;;;;;;;26.36;42.30;102785.19;4995852;28;20906;-46
2022/08/10 12:03:03;;;;;;;2.60;2.50;;;;;;;26.37;41.16;102775.09;4995469;28;20919;-49
2022/08/10 12:05:35;;;;;;;2.90;2.70;;;;;;;26.42;41.57;102774.31;4995693;28;20436;-49